createdAt,value
2018-12-19T00:14:38.399Z,32.27
2018-12-19T00:17:06.826Z,32.27
2018-12-19T00:19:35.267Z,30.77
2018-12-19T00:22:03.717Z,32.87
2018-12-19T00:24:32.164Z,31.43
2018-12-19T00:27:00.583Z,33.17
2018-12-19T00:29:29.040Z,33.33
2018-12-19T00:31:57.477Z,32.07
2018-12-19T00:34:25.967Z,33.57
2018-12-19T00:36:54.531Z,34.27
2018-12-19T00:39:22.983Z,32.97
2018-12-19T00:41:51.462Z,33.47
2018-12-19T00:44:19.887Z,32.83
2018-12-19T00:46:48.343Z,32.07
2018-12-19T00:49:16.767Z,34.30
2018-12-19T00:51:45.260Z,35.70
2018-12-19T00:54:13.688Z,35.13
2018-12-19T00:56:42.154Z,34.63
2018-12-19T00:59:10.566Z,33.60
2018-12-19T01:01:39.041Z,32.27
2018-12-19T01:04:07.559Z,32.57
2018-12-19T01:06:35.980Z,31.60
2018-12-19T01:09:07.091Z,33.57
2018-12-19T01:11:35.620Z,32.70
2018-12-19T01:14:04.223Z,29.77
2018-12-19T01:16:32.673Z,32.80
2018-12-19T01:19:01.119Z,32.13
2018-12-19T01:21:29.552Z,33.77
2018-12-19T01:23:58.056Z,33.60
2018-12-19T01:26:26.475Z,33.57
2018-12-19T01:28:54.903Z,35.97
2018-12-19T01:31:23.384Z,36.03
2018-12-19T01:33:51.876Z,36.60
2018-12-19T01:36:20.353Z,35.90
2018-12-19T01:38:48.770Z,35.97
2018-12-19T01:41:17.231Z,36.03
2018-12-19T01:43:45.679Z,37.00
2018-12-19T01:46:14.099Z,36.17
2018-12-19T01:48:42.551Z,35.87
2018-12-19T01:51:10.979Z,34.73
2018-12-19T01:53:39.419Z,35.47
2018-12-19T01:56:07.857Z,36.57
2018-12-19T01:58:36.292Z,35.47
2018-12-19T02:01:04.843Z,37.07
2018-12-19T02:03:33.327Z,36.03
2018-12-19T02:06:01.777Z,35.77
2018-12-19T02:08:30.195Z,35.57
2018-12-19T02:10:58.639Z,34.37
2018-12-19T02:13:27.056Z,33.97
2018-12-19T02:15:55.525Z,34.50
2018-12-19T02:18:23.955Z,36.13
2018-12-19T02:20:52.414Z,36.50
2018-12-19T02:23:20.855Z,34.93
2018-12-19T02:25:49.391Z,35.47
2018-12-19T02:28:17.844Z,37.00
2018-12-19T02:30:46.270Z,35.27
2018-12-19T02:33:14.781Z,33.90
2018-12-19T02:35:43.297Z,36.33
2018-12-19T02:38:11.755Z,35.33
2018-12-19T02:40:40.224Z,36.70
2018-12-19T02:43:08.672Z,36.97
2018-12-19T02:45:37.141Z,35.97
2018-12-19T02:48:05.563Z,36.90
2018-12-19T02:50:34.042Z,35.10
2018-12-19T02:53:02.467Z,36.03
2018-12-19T02:55:30.898Z,35.07
2018-12-19T02:57:59.328Z,36.73
2018-12-19T03:00:27.799Z,38.47
2018-12-19T03:02:56.220Z,38.93
2018-12-19T03:05:24.681Z,38.77
2018-12-19T03:07:53.140Z,40.97
2018-12-19T03:10:21.603Z,38.70
2018-12-19T03:12:50.025Z,37.27
2018-12-19T03:15:18.492Z,38.83
2018-12-19T03:17:46.926Z,38.13
2018-12-19T03:20:15.380Z,39.67
2018-12-19T03:22:43.791Z,39.77
2018-12-19T03:25:12.247Z,38.57
2018-12-19T03:27:40.715Z,39.63
2018-12-19T03:30:09.153Z,39.93
2018-12-19T03:32:37.799Z,39.30
2018-12-19T03:35:06.228Z,38.80
2018-12-19T03:37:34.648Z,38.73
2018-12-19T03:40:03.364Z,38.73
2018-12-19T03:42:31.808Z,39.50
2018-12-19T03:45:00.228Z,38.53
2018-12-19T03:47:28.667Z,37.73
2018-12-19T03:49:57.192Z,37.93
2018-12-19T03:52:25.657Z,38.20
2018-12-19T03:54:54.137Z,37.83
2018-12-19T03:57:23.307Z,38.37
2018-12-19T03:59:51.795Z,38.40
2018-12-19T04:02:20.296Z,38.67
2018-12-19T04:04:48.759Z,35.60
2018-12-19T04:07:17.271Z,38.43
2018-12-19T04:09:45.786Z,37.53
2018-12-19T04:12:14.219Z,35.70
2018-12-19T04:14:42.683Z,35.03
2018-12-19T04:17:12.145Z,38.67
2018-12-19T04:19:40.608Z,36.07
2018-12-19T04:22:09.012Z,35.80
2018-12-19T04:24:37.491Z,34.63
2018-12-19T04:27:05.930Z,34.30
2018-12-19T04:29:34.866Z,33.87
2018-12-19T04:32:03.336Z,34.17
2018-12-19T04:34:31.776Z,33.43
2018-12-19T04:37:00.261Z,32.83
2018-12-19T04:39:28.714Z,33.63
2018-12-19T04:41:57.181Z,33.63
2018-12-19T04:44:25.719Z,33.30
2018-12-19T04:46:54.140Z,34.43
2018-12-19T04:49:22.646Z,30.40
2018-12-19T04:51:51.108Z,32.23
2018-12-19T04:54:19.580Z,32.30
2018-12-19T04:56:48.050Z,33.00
2018-12-19T04:59:16.476Z,32.50
2018-12-19T05:01:44.936Z,29.67
2018-12-19T05:04:13.397Z,27.40
2018-12-19T05:06:41.816Z,24.17
2018-12-19T05:09:10.263Z,24.20
2018-12-19T05:11:38.754Z,26.80
2018-12-19T05:14:07.183Z,26.53
2018-12-19T05:16:35.654Z,26.77
2018-12-19T05:19:04.107Z,26.07
2018-12-19T05:21:32.559Z,25.37
2018-12-19T05:24:00.987Z,27.07
2018-12-19T05:26:29.440Z,22.33
2018-12-19T05:28:57.852Z,23.57
2018-12-19T05:31:26.279Z,18.97
2018-12-19T05:35:24.186Z,20.70
2018-12-19T05:37:52.779Z,21.60
2018-12-19T05:40:21.200Z,19.97
2018-12-19T05:42:49.650Z,19.40
2018-12-19T05:45:18.053Z,19.10
2018-12-19T05:47:46.695Z,19.47
2018-12-19T05:50:16.172Z,19.13
2018-12-19T05:52:44.600Z,19.10
2018-12-19T05:55:13.107Z,17.97
2018-12-19T05:57:42.389Z,19.07
2018-12-19T06:00:10.819Z,18.67
2018-12-19T06:02:39.227Z,19.27
2018-12-19T06:05:08.023Z,20.87
2018-12-19T06:07:36.481Z,18.00
2018-12-19T06:10:05.575Z,18.50
2018-12-19T06:12:34.060Z,20.87
2018-12-19T06:15:02.627Z,19.40
2018-12-19T06:17:31.083Z,18.77
2018-12-19T06:19:59.543Z,18.67
2018-12-19T06:22:28.003Z,18.47
2018-12-19T06:24:56.463Z,18.20
2018-12-19T06:27:24.895Z,18.10
2018-12-19T06:29:53.346Z,18.93
2018-12-19T06:32:21.808Z,17.73
2018-12-19T06:34:50.260Z,17.50
2018-12-19T06:37:18.715Z,19.50
2018-12-19T06:39:47.131Z,17.77
2018-12-19T06:42:15.580Z,16.77
2018-12-19T06:44:44.160Z,17.57
2018-12-19T06:47:12.614Z,16.10
2018-12-19T06:49:41.027Z,17.30
2018-12-19T06:52:10.305Z,16.37
2018-12-19T06:54:38.771Z,16.43
2018-12-19T06:57:07.199Z,16.77
2018-12-19T06:59:35.671Z,17.07
2018-12-19T07:02:04.089Z,17.37
2018-12-19T07:04:32.547Z,17.30
2018-12-19T07:07:00.976Z,17.50
2018-12-19T07:09:29.427Z,16.87
2018-12-19T07:11:57.891Z,17.00
2018-12-19T07:14:26.307Z,17.07
2018-12-19T07:16:54.799Z,17.27
2018-12-19T07:19:23.217Z,18.03
2018-12-19T07:21:51.618Z,16.97
2018-12-19T07:24:20.075Z,16.73
2018-12-19T07:26:48.503Z,17.20
2018-12-19T07:29:16.916Z,17.03
2018-12-19T07:31:45.391Z,16.70
2018-12-19T07:34:13.815Z,16.50
2018-12-19T07:36:42.275Z,16.40
2018-12-19T07:39:10.682Z,15.63
2018-12-19T07:41:39.135Z,17.00
2018-12-19T07:44:07.560Z,15.37
2018-12-19T07:46:36.027Z,16.93
2018-12-19T07:49:04.488Z,16.60
2018-12-19T07:51:32.932Z,17.20
2018-12-19T07:54:01.399Z,16.23
2018-12-19T07:56:29.812Z,16.13
2018-12-19T07:58:58.261Z,15.27
2018-12-19T08:01:26.723Z,15.60
2018-12-19T08:03:55.151Z,15.43
2018-12-19T08:06:23.627Z,16.23
2018-12-19T08:08:52.183Z,15.93
2018-12-19T08:11:20.627Z,15.77
2018-12-19T08:13:49.055Z,16.70
2018-12-19T08:16:17.517Z,15.63
2018-12-19T08:18:45.935Z,15.73
2018-12-19T08:21:14.647Z,16.53
2018-12-19T08:23:43.111Z,16.30
2018-12-19T08:26:11.516Z,15.80
2018-12-19T08:28:41.296Z,16.63
2018-12-19T08:31:09.747Z,17.53
2018-12-19T08:33:38.171Z,16.20
2018-12-19T08:36:06.647Z,16.40
2018-12-19T08:38:35.070Z,16.83
2018-12-19T08:41:03.511Z,16.27
2018-12-19T08:43:32.007Z,16.60
2018-12-19T08:46:01.239Z,16.27
2018-12-19T08:48:29.711Z,17.27
2018-12-19T08:50:58.169Z,16.77
2018-12-19T08:53:26.591Z,17.10
2018-12-19T08:55:55.047Z,16.77
2018-12-19T08:58:23.483Z,17.73
2018-12-19T09:00:52.548Z,17.67
2018-12-19T09:03:20.956Z,19.73
2018-12-19T09:05:49.417Z,21.47
2018-12-19T09:08:17.879Z,21.50
2018-12-19T09:10:46.509Z,22.00
2018-12-19T09:13:14.988Z,19.27
2018-12-19T09:15:48.575Z,17.23
2018-12-19T09:18:17.021Z,16.93
2018-12-19T09:20:46.975Z,15.60
2018-12-19T09:23:16.471Z,16.93
2018-12-19T09:25:45.048Z,17.27
2018-12-19T09:28:13.459Z,16.33
2018-12-19T09:30:41.926Z,16.20
2018-12-19T09:33:10.372Z,16.60
2018-12-19T09:35:38.978Z,17.13
2018-12-19T09:38:07.400Z,15.60
2018-12-19T09:40:35.855Z,16.77
2018-12-19T09:43:04.267Z,16.13
2018-12-19T09:45:32.736Z,16.33
2018-12-19T09:48:01.166Z,16.70
2018-12-19T09:50:29.630Z,15.10
2018-12-19T09:52:58.092Z,14.90
2018-12-19T09:55:26.539Z,16.17
2018-12-19T09:57:55.004Z,16.13
2018-12-19T10:00:27.379Z,16.63
2018-12-19T10:02:57.010Z,16.27
2018-12-19T10:05:25.670Z,15.37
2018-12-19T10:07:54.083Z,15.40
2018-12-19T10:10:22.530Z,17.80
2018-12-19T10:12:51.023Z,20.00
2018-12-19T10:15:19.467Z,25.13
2018-12-19T10:17:47.896Z,26.57
2018-12-19T10:20:16.706Z,26.57
2018-12-19T10:22:45.163Z,27.97
2018-12-19T10:25:15.304Z,28.13
2018-12-19T10:27:43.732Z,29.27
2018-12-19T10:30:13.771Z,27.63
2018-12-19T10:32:42.549Z,27.07
2018-12-19T10:35:11.819Z,26.73
2018-12-19T10:37:40.271Z,24.73
2018-12-19T10:40:10.819Z,25.60
2018-12-19T10:42:39.255Z,25.40
2018-12-19T10:45:10.007Z,28.57
2018-12-19T10:47:38.435Z,26.93
2018-12-19T10:50:09.541Z,26.47
2018-12-19T10:52:38.110Z,28.20
2018-12-19T10:55:08.680Z,29.93
2018-12-19T10:57:37.896Z,29.57
2018-12-19T11:00:15.608Z,28.30
2018-12-19T11:02:44.067Z,27.67
2018-12-19T11:05:12.540Z,27.20
2018-12-19T11:07:41.250Z,28.80
2018-12-19T11:10:10.011Z,28.10
2018-12-19T11:12:38.532Z,27.70
2018-12-19T11:15:10.048Z,27.83
2018-12-19T11:17:38.675Z,26.17
2018-12-19T11:20:09.871Z,25.90
2018-12-19T11:22:38.334Z,26.17
2018-12-19T11:25:07.443Z,26.87
2018-12-19T11:27:35.907Z,26.50
2018-12-19T11:30:05.867Z,26.43
2018-12-19T11:32:34.335Z,28.93
2018-12-19T11:35:02.929Z,28.57
2018-12-19T11:37:31.498Z,27.73
2018-12-19T11:39:59.915Z,28.10
2018-12-19T11:42:28.463Z,26.77
2018-12-19T11:44:56.958Z,28.97
2018-12-19T11:47:25.458Z,28.43
2018-12-19T11:49:53.919Z,29.73
2018-12-19T11:52:22.382Z,30.30
2018-12-19T11:54:50.844Z,28.53
2018-12-19T11:57:20.147Z,29.20
2018-12-19T11:59:48.564Z,28.10
2018-12-19T12:02:17.031Z,28.87
2018-12-19T12:04:45.521Z,28.03
2018-12-19T12:07:14.803Z,28.83
2018-12-19T12:09:43.207Z,31.90
2018-12-19T12:12:11.657Z,29.50
2018-12-19T12:14:40.074Z,29.17
2018-12-19T12:17:08.871Z,28.23
2018-12-19T12:19:37.884Z,29.93
2018-12-19T12:22:06.404Z,31.37
2018-12-19T12:24:34.844Z,30.30
2018-12-19T12:27:03.269Z,29.83
2018-12-19T12:29:31.730Z,29.80
2018-12-19T12:32:00.148Z,31.63
2018-12-19T12:34:28.711Z,30.27
2018-12-19T12:36:57.168Z,28.63
2018-12-19T12:39:25.639Z,31.23
2018-12-19T12:41:54.108Z,31.97
2018-12-19T12:44:22.583Z,30.97
2018-12-19T12:46:51.003Z,30.43
2018-12-19T12:49:19.422Z,31.47
2018-12-19T12:51:47.876Z,38.80
2018-12-19T12:54:16.293Z,33.80
2018-12-19T12:56:44.767Z,32.10
2018-12-19T12:59:13.197Z,31.80
2018-12-19T13:01:41.673Z,31.27
2018-12-19T13:04:10.105Z,33.83
2018-12-19T13:06:38.692Z,33.47
2018-12-19T13:09:08.567Z,31.57
2018-12-19T13:11:37.047Z,30.03
2018-12-19T13:14:05.459Z,31.37
2018-12-19T13:16:33.919Z,32.57
2018-12-19T13:19:02.566Z,33.07
2018-12-19T13:21:32.091Z,31.93
2018-12-19T13:24:00.510Z,32.10
2018-12-19T13:26:28.939Z,31.20
2018-12-19T13:28:57.424Z,31.83
2018-12-19T13:31:25.846Z,30.60
2018-12-19T13:33:54.268Z,32.47
2018-12-19T13:36:22.703Z,31.90
2018-12-19T13:38:51.120Z,33.10
2018-12-19T13:41:19.548Z,33.07
2018-12-19T13:43:48.019Z,32.83
2018-12-19T13:46:16.535Z,38.40
2018-12-19T13:48:44.968Z,32.60
2018-12-19T13:51:13.426Z,33.57
2018-12-19T13:53:41.887Z,33.50
2018-12-19T13:56:10.305Z,35.13
2018-12-19T13:58:39.818Z,32.70
2018-12-19T14:01:08.262Z,31.00
2018-12-19T14:03:36.689Z,33.17
2018-12-19T14:06:05.155Z,31.67
2018-12-19T14:08:33.571Z,33.20
2018-12-19T14:11:02.013Z,34.47
2018-12-19T14:13:30.443Z,34.90
2018-12-19T14:15:58.863Z,35.07
2018-12-19T14:18:27.346Z,32.57
2018-12-19T14:20:55.843Z,33.77
2018-12-19T14:23:24.403Z,33.97
2018-12-19T14:25:52.807Z,33.10
2018-12-19T14:28:21.264Z,32.60
2018-12-19T14:30:49.795Z,33.53
2018-12-19T14:33:18.256Z,31.80
2018-12-19T14:35:47.742Z,33.13
2018-12-19T14:38:16.199Z,31.87
2018-12-19T14:40:44.655Z,33.87
2018-12-19T14:43:13.068Z,33.53
2018-12-19T14:45:41.522Z,33.83
2018-12-19T14:49:39.406Z,34.57
2018-12-19T14:52:07.895Z,35.60
2018-12-19T14:54:36.311Z,35.00
2018-12-19T14:57:05.929Z,35.30
2018-12-19T14:59:34.959Z,33.33
2018-12-19T15:02:03.419Z,33.23
2018-12-19T15:04:31.881Z,33.97
2018-12-19T15:07:00.363Z,34.63
2018-12-19T15:09:28.771Z,33.23
2018-12-19T15:11:57.235Z,28.27
2018-12-19T15:14:25.723Z,22.07
2018-12-19T15:16:54.179Z,22.10
2018-12-19T15:19:22.620Z,19.97
2018-12-19T15:21:51.051Z,21.10
2018-12-19T15:24:19.500Z,20.00
2018-12-19T15:26:47.956Z,19.73
2018-12-19T15:29:16.425Z,19.77
2018-12-19T15:31:45.007Z,20.70
2018-12-19T15:34:13.482Z,20.17
2018-12-19T15:36:42.008Z,20.73
2018-12-19T15:39:10.475Z,19.60
2018-12-19T15:41:39.039Z,19.07
2018-12-19T15:44:07.503Z,19.40
2018-12-19T15:46:35.963Z,18.27
2018-12-19T15:49:04.516Z,18.23
2018-12-19T15:51:33.322Z,20.50
2018-12-19T15:54:02.287Z,17.70
2018-12-19T15:56:30.774Z,17.67
2018-12-19T15:58:59.359Z,17.23
2018-12-19T16:01:28.379Z,17.37
2018-12-19T16:03:57.023Z,16.83
2018-12-19T16:06:25.482Z,17.87
2018-12-19T16:08:53.933Z,16.20
2018-12-19T16:11:22.411Z,16.57
2018-12-19T16:13:50.913Z,17.13
2018-12-19T16:16:19.403Z,16.47
2018-12-19T16:18:47.862Z,16.97
2018-12-19T16:21:16.289Z,15.83
2018-12-19T16:23:44.755Z,16.57
2018-12-19T16:26:13.184Z,15.57
2018-12-19T16:28:41.651Z,16.40
2018-12-19T16:31:10.095Z,15.53
2018-12-19T16:33:38.586Z,15.43
2018-12-19T16:36:07.053Z,15.43
2018-12-19T16:38:35.517Z,16.83
2018-12-19T16:41:03.980Z,15.80
2018-12-19T16:43:32.451Z,13.83
2018-12-19T16:46:00.912Z,16.10
2018-12-19T16:48:29.345Z,14.27
2018-12-19T16:50:57.808Z,15.53
2018-12-19T16:53:26.239Z,15.90
2018-12-19T16:55:54.707Z,15.10
2018-12-19T16:58:23.116Z,14.80
2018-12-19T17:00:51.626Z,14.27
2018-12-19T17:03:20.048Z,15.17
2018-12-19T17:05:48.467Z,15.20
2018-12-19T17:08:16.880Z,15.00
2018-12-19T17:10:45.330Z,15.33
2018-12-19T17:13:13.743Z,14.80
2018-12-19T17:15:42.196Z,15.37
2018-12-19T17:18:10.628Z,16.03
2018-12-19T17:20:39.064Z,14.70
2018-12-19T17:23:07.520Z,14.87
2018-12-19T17:25:35.928Z,15.53
2018-12-19T17:28:04.406Z,14.87
2018-12-19T17:30:32.856Z,15.97
2018-12-19T17:33:01.304Z,16.23
2018-12-19T17:35:29.757Z,18.57
2018-12-19T17:37:58.165Z,20.63
2018-12-19T17:40:26.651Z,21.43
2018-12-19T17:42:59.364Z,21.17
2018-12-19T17:45:25.603Z,23.57
2018-12-19T17:47:54.190Z,23.83
2018-12-19T17:50:22.623Z,23.33
2018-12-19T17:52:51.061Z,25.80
2018-12-19T17:55:19.596Z,26.20
2018-12-19T17:57:48.020Z,26.93
2018-12-19T18:00:16.544Z,26.30
2018-12-19T18:02:45.087Z,26.30
2018-12-19T18:05:13.551Z,28.07
2018-12-19T18:07:42.008Z,29.00
2018-12-19T18:10:10.416Z,29.80
2018-12-19T18:12:38.851Z,29.13
2018-12-19T18:15:07.333Z,28.87
2018-12-19T18:17:35.785Z,29.30
2018-12-19T18:20:05.587Z,29.87
2018-12-19T18:22:34.095Z,32.97
2018-12-19T18:25:02.511Z,32.33
2018-12-19T18:27:30.953Z,33.30
2018-12-19T18:29:59.359Z,34.37
2018-12-19T18:32:27.794Z,30.73
2018-12-19T18:34:56.329Z,32.53
2018-12-19T18:37:24.892Z,33.37
2018-12-19T18:39:53.363Z,32.90
2018-12-19T18:42:21.810Z,30.67
2018-12-19T18:44:50.256Z,31.77
2018-12-19T18:48:22.227Z,31.23
2018-12-19T18:50:50.639Z,30.97
2018-12-19T18:53:19.121Z,32.50
2018-12-19T18:55:47.575Z,31.77
2018-12-19T18:58:16.165Z,30.53
2018-12-19T19:00:47.172Z,31.07
2018-12-19T19:03:15.910Z,31.33
2018-12-19T19:05:44.364Z,30.87
2018-12-19T19:08:13.193Z,27.17
2018-12-19T19:10:41.733Z,28.30
2018-12-19T19:13:10.223Z,28.57
2018-12-19T19:15:38.769Z,29.50
2018-12-19T19:18:07.210Z,26.77
2018-12-19T19:20:35.923Z,27.93
2018-12-19T19:23:04.409Z,28.97
2018-12-19T19:25:32.975Z,31.17
2018-12-19T19:28:01.760Z,29.20
2018-12-19T19:30:30.362Z,29.07
2018-12-19T19:32:58.911Z,28.70
2018-12-19T19:35:27.658Z,28.37
2018-12-19T19:37:56.179Z,28.60
2018-12-19T19:40:24.718Z,29.87
2018-12-19T19:42:53.287Z,28.37
2018-12-19T19:45:21.721Z,28.13
2018-12-19T19:47:50.299Z,28.07
2018-12-19T19:50:18.807Z,25.67
2018-12-19T19:52:47.267Z,27.70
2018-12-19T19:55:16.940Z,27.87
2018-12-19T19:57:45.364Z,26.00
2018-12-19T20:00:15.851Z,28.43
2018-12-19T20:02:44.363Z,29.00
2018-12-19T20:05:12.846Z,29.50
2018-12-19T20:07:41.416Z,27.77
2018-12-19T20:10:09.915Z,26.07
2018-12-19T20:12:38.513Z,26.73
2018-12-19T20:15:07.575Z,27.83
2018-12-19T20:17:36.099Z,26.00
2018-12-19T20:20:05.028Z,25.97
2018-12-19T20:22:33.811Z,26.13
2018-12-19T20:25:02.577Z,27.03
2018-12-19T20:27:31.244Z,25.93
2018-12-19T20:30:00.160Z,26.00
2018-12-19T20:32:28.906Z,26.67
2018-12-19T20:34:57.744Z,24.90
2018-12-19T20:37:26.615Z,24.93
2018-12-19T20:39:55.392Z,25.50
2018-12-19T20:42:24.331Z,26.90
2018-12-19T20:44:52.983Z,25.20
2018-12-19T20:47:21.447Z,24.83
2018-12-19T20:49:49.948Z,25.27
2018-12-19T20:52:18.444Z,22.60
2018-12-19T20:54:47.096Z,22.10
2018-12-19T20:57:15.536Z,23.67
2018-12-19T20:59:44.019Z,25.10
2018-12-19T21:02:12.709Z,22.27
2018-12-19T21:04:41.328Z,23.43
2018-12-19T21:07:09.873Z,22.13
2018-12-19T21:09:38.343Z,21.83
2018-12-19T21:12:06.789Z,21.53
2018-12-19T21:14:35.272Z,23.20
2018-12-19T21:17:08.859Z,24.03
2018-12-19T21:19:37.308Z,22.33
2018-12-19T21:22:09.989Z,22.53
2018-12-19T21:24:38.495Z,23.30
2018-12-19T21:27:06.932Z,21.13
2018-12-19T21:29:35.356Z,21.50
2018-12-19T21:32:03.850Z,21.17
2018-12-19T21:34:32.287Z,23.57
2018-12-19T21:37:02.110Z,21.77
2018-12-19T21:39:31.292Z,22.00
2018-12-19T21:41:59.750Z,23.00
2018-12-19T21:44:28.300Z,20.80
2018-12-19T21:46:56.730Z,21.60
2018-12-19T21:49:25.144Z,22.10
2018-12-19T21:51:53.607Z,24.50
2018-12-19T21:54:22.176Z,22.07
2018-12-19T21:56:50.705Z,21.40
2018-12-19T21:59:19.157Z,22.93
2018-12-19T22:01:47.695Z,21.00
2018-12-19T22:04:16.139Z,23.03
2018-12-19T22:06:44.607Z,21.80
2018-12-19T22:09:13.232Z,21.50
2018-12-19T22:11:41.802Z,23.77
2018-12-19T22:14:10.343Z,23.27
2018-12-19T22:16:44.159Z,23.10
2018-12-19T22:19:12.709Z,23.67
2018-12-19T22:21:41.247Z,23.33
2018-12-19T22:24:09.677Z,23.00
2018-12-19T22:26:38.163Z,23.60
2018-12-19T22:29:06.596Z,24.20
2018-12-19T22:31:35.011Z,23.90
2018-12-19T22:34:03.478Z,23.30
2018-12-19T22:36:32.034Z,24.13
2018-12-19T22:39:00.489Z,24.37
2018-12-19T22:41:29.099Z,24.70
2018-12-19T22:43:57.658Z,24.50
2018-12-19T22:46:26.192Z,25.00
2018-12-19T22:48:54.783Z,24.37
2018-12-19T22:51:23.350Z,25.30
2018-12-19T22:53:51.845Z,24.37
2018-12-19T22:56:20.355Z,24.70
2018-12-19T22:58:48.860Z,26.00
2018-12-19T23:01:22.891Z,25.77
2018-12-19T23:03:56.770Z,25.20
2018-12-19T23:06:25.291Z,25.10
2018-12-19T23:08:53.856Z,24.77
2018-12-19T23:11:22.274Z,26.10
2018-12-19T23:13:50.691Z,27.07
2018-12-19T23:16:19.166Z,26.67
2018-12-19T23:18:47.613Z,26.53
2018-12-19T23:21:16.449Z,25.70
2018-12-19T23:23:45.118Z,26.43
2018-12-19T23:26:13.714Z,24.93
2018-12-19T23:28:42.298Z,26.00
2018-12-19T23:31:10.812Z,26.03
2018-12-19T23:33:39.315Z,25.53
2018-12-19T23:36:08.375Z,26.70
2018-12-19T23:38:37.628Z,24.83
2018-12-19T23:41:06.803Z,27.67
2018-12-19T23:43:35.311Z,26.50
2018-12-19T23:46:03.786Z,27.50
2018-12-19T23:50:01.716Z,28.50
2018-12-19T23:52:30.911Z,27.53
2018-12-19T23:54:59.570Z,28.97
2018-12-19T23:57:28.027Z,28.13
2018-12-19T23:59:56.514Z,28.50
